sensor_id;sensor_type;location;lat;lon;timestamp;pressure;altitude;pressure_sealevel;temperature;humidity
5755;BME280;2902;42.130;24.732;2023-03-15T00:00:04;98656.91;;;8.26;55.30
5755;BME280;2902;42.130;24.732;2023-03-15T00:02:32;98658.53;;;8.33;55.71
5755;BME280;2902;42.130;24.732;2023-03-15T00:05:00;98655.28;;;8.38;56.20
5755;BME280;2902;42.130;24.732;2023-03-15T00:07:27;98655.69;;;8.41;55.53
5755;BME280;2902;42.130;24.732;2023-03-15T00:09:54;98654.47;;;8.44;56.09
5755;BME280;2902;42.130;24.732;2023-03-15T00:12:21;98647.94;;;8.46;55.96
5755;BME280;2902;42.130;24.732;2023-03-15T00:14:48;98651.22;;;8.48;55.87
5755;BME280;2902;42.130;24.732;2023-03-15T00:17:15;98654.91;;;8.47;55.67
5755;BME280;2902;42.130;24.732;2023-03-15T00:19:41;98651.63;;;8.39;56.34
5755;BME280;2902;42.130;24.732;2023-03-15T00:22:10;98645.09;;;8.35;56.16
5755;BME280;2902;42.130;24.732;2023-03-15T00:24:36;98645.84;;;8.16;56.28
5755;BME280;2902;42.130;24.732;2023-03-15T00:27:03;98635.69;;;8.00;56.99
5755;BME280;2902;42.130;24.732;2023-03-15T00:29:30;98634.84;;;7.93;56.41
5755;BME280;2902;42.130;24.732;2023-03-15T00:31:57;98623.78;;;7.70;56.39
5755;BME280;2902;42.130;24.732;2023-03-15T00:34:24;98618.84;;;7.47;57.21
5755;BME280;2902;42.130;24.732;2023-03-15T00:36:51;98636.25;;;7.35;57.39
5755;BME280;2902;42.130;24.732;2023-03-15T00:39:20;98639.47;;;7.24;57.63
5755;BME280;2902;42.130;24.732;2023-03-15T00:41:50;98630.84;;;7.09;58.12
5755;BME280;2902;42.130;24.732;2023-03-15T00:44:21;98629.19;;;7.02;59.02
5755;BME280;2902;42.130;24.732;2023-03-15T00:46:48;98622.69;;;6.98;59.50
5755;BME280;2902;42.130;24.732;2023-03-15T00:49:15;98621.81;;;6.91;59.42
5755;BME280;2902;42.130;24.732;2023-03-15T00:51:41;98612.00;;;6.85;60.21
5755;BME280;2902;42.130;24.732;2023-03-15T00:54:08;98617.88;;;6.80;60.33
5755;BME280;2902;42.130;24.732;2023-03-15T00:56:39;98627.16;;;6.70;61.13
5755;BME280;2902;42.130;24.732;2023-03-15T00:59:06;98624.53;;;6.70;61.14
5755;BME280;2902;42.130;24.732;2023-03-15T01:01:33;98612.63;;;6.53;61.26
5755;BME280;2902;42.130;24.732;2023-03-15T01:04:00;98620.78;;;6.58;61.63
5755;BME280;2902;42.130;24.732;2023-03-15T01:06:28;98610.22;;;6.58;62.17
5755;BME280;2902;42.130;24.732;2023-03-15T01:08:55;98607.00;;;6.62;61.91
5755;BME280;2902;42.130;24.732;2023-03-15T01:11:24;98602.53;;;6.63;62.06
5755;BME280;2902;42.130;24.732;2023-03-15T01:13:53;98593.63;;;6.64;62.39
5755;BME280;2902;42.130;24.732;2023-03-15T01:16:21;98602.91;;;6.60;62.42
5755;BME280;2902;42.130;24.732;2023-03-15T01:18:48;98604.25;;;6.49;63.37
5755;BME280;2902;42.130;24.732;2023-03-15T01:21:16;98596.31;;;6.43;63.68
5755;BME280;2902;42.130;24.732;2023-03-15T01:23:43;98599.97;;;6.42;63.57
5755;BME280;2902;42.130;24.732;2023-03-15T01:26:11;98591.22;;;6.41;63.80
5755;BME280;2902;42.130;24.732;2023-03-15T01:28:39;98603.69;;;6.54;63.34
5755;BME280;2902;42.130;24.732;2023-03-15T01:31:08;98598.09;;;6.63;62.80
5755;BME280;2902;42.130;24.732;2023-03-15T01:33:40;98591.22;;;6.69;62.96
5755;BME280;2902;42.130;24.732;2023-03-15T01:36:07;98585.97;;;6.69;63.04
5755;BME280;2902;42.130;24.732;2023-03-15T01:38:33;98582.72;;;6.73;62.35
5755;BME280;2902;42.130;24.732;2023-03-15T01:41:00;98579.28;;;6.73;63.06
5755;BME280;2902;42.130;24.732;2023-03-15T01:43:29;98585.81;;;6.77;63.26
5755;BME280;2902;42.130;24.732;2023-03-15T01:46:14;98580.22;;;6.65;63.93
5755;BME280;2902;42.130;24.732;2023-03-15T01:48:45;98580.41;;;6.64;64.69
5755;BME280;2902;42.130;24.732;2023-03-15T01:51:17;98580.81;;;6.61;64.73
5755;BME280;2902;42.130;24.732;2023-03-15T01:53:50;98587.72;;;6.62;64.82
5755;BME280;2902;42.130;24.732;2023-03-15T01:56:20;98584.59;;;6.52;65.60
5755;BME280;2902;42.130;24.732;2023-03-15T01:58:50;98589.03;;;6.45;65.85
5755;BME280;2902;42.130;24.732;2023-03-15T02:01:20;98590.00;;;6.44;66.30
5755;BME280;2902;42.130;24.732;2023-03-15T02:03:51;98586.81;;;6.48;65.84
5755;BME280;2902;42.130;24.732;2023-03-15T02:06:21;98583.75;;;6.45;66.02
5755;BME280;2902;42.130;24.732;2023-03-15T02:08:51;98583.94;;;6.43;66.23
5755;BME280;2902;42.130;24.732;2023-03-15T02:11:21;98580.00;;;6.33;66.75
5755;BME280;2902;42.130;24.732;2023-03-15T02:13:50;98582.78;;;6.25;66.86
5755;BME280;2902;42.130;24.732;2023-03-15T02:16:20;98586.75;;;6.14;67.59
5755;BME280;2902;42.130;24.732;2023-03-15T02:18:47;98583.44;;;6.06;67.68
5755;BME280;2902;42.130;24.732;2023-03-15T02:21:32;98571.25;;;6.05;67.58
5755;BME280;2902;42.130;24.732;2023-03-15T02:24:11;98570.38;;;5.98;67.70
5755;BME280;2902;42.130;24.732;2023-03-15T02:26:45;98559.41;;;5.94;68.65
5755;BME280;2902;42.130;24.732;2023-03-15T02:29:14;98563.13;;;6.00;68.00
5755;BME280;2902;42.130;24.732;2023-03-15T02:31:42;98566.19;;;6.03;67.53
5755;BME280;2902;42.130;24.732;2023-03-15T02:34:09;98565.16;;;6.04;67.69
5755;BME280;2902;42.130;24.732;2023-03-15T02:36:36;98560.72;;;6.05;68.23
5755;BME280;2902;42.130;24.732;2023-03-15T02:39:13;98561.59;;;6.12;67.52
5755;BME280;2902;42.130;24.732;2023-03-15T02:41:41;98561.91;;;6.02;67.90
5755;BME280;2902;42.130;24.732;2023-03-15T02:44:13;98566.13;;;5.97;67.83
5755;BME280;2902;42.130;24.732;2023-03-15T02:46:43;98549.81;;;5.87;68.16
5755;BME280;2902;42.130;24.732;2023-03-15T02:49:12;98566.00;;;6.05;67.71
5755;BME280;2902;42.130;24.732;2023-03-15T02:51:41;98552.31;;;5.95;68.16
5755;BME280;2902;42.130;24.732;2023-03-15T02:54:08;98552.94;;;5.97;67.89
5755;BME280;2902;42.130;24.732;2023-03-15T02:56:35;98554.97;;;5.95;68.46
5755;BME280;2902;42.130;24.732;2023-03-15T02:59:01;98540.72;;;5.89;68.20
5755;BME280;2902;42.130;24.732;2023-03-15T03:01:28;98546.03;;;5.96;68.15
5755;BME280;2902;42.130;24.732;2023-03-15T03:03:57;98552.94;;;5.97;67.97
5755;BME280;2902;42.130;24.732;2023-03-15T03:06:23;98535.94;;;5.99;68.09
5755;BME280;2902;42.130;24.732;2023-03-15T03:08:50;98541.16;;;5.93;68.05
5755;BME280;2902;42.130;24.732;2023-03-15T03:11:17;98539.06;;;5.88;68.07
5755;BME280;2902;42.130;24.732;2023-03-15T03:13:43;98547.19;;;5.87;68.35
5755;BME280;2902;42.130;24.732;2023-03-15T03:16:10;98550.38;;;5.82;68.58
5755;BME280;2902;42.130;24.732;2023-03-15T03:18:37;98541.50;;;5.68;68.77
5755;BME280;2902;42.130;24.732;2023-03-15T03:21:06;98537.47;;;5.51;69.90
5755;BME280;2902;42.130;24.732;2023-03-15T03:23:34;98530.22;;;5.53;69.50
5755;BME280;2902;42.130;24.732;2023-03-15T03:26:02;98530.47;;;5.58;69.46
5755;BME280;2902;42.130;24.732;2023-03-15T03:28:30;98526.59;;;5.54;69.72
5755;BME280;2902;42.130;24.732;2023-03-15T03:30:57;98533.59;;;5.47;70.07
5755;BME280;2902;42.130;24.732;2023-03-15T03:33:24;98529.69;;;5.43;69.65
5755;BME280;2902;42.130;24.732;2023-03-15T03:35:52;98525.31;;;5.29;70.22
5755;BME280;2902;42.130;24.732;2023-03-15T03:38:20;98523.78;;;5.20;70.04
5755;BME280;2902;42.130;24.732;2023-03-15T03:40:47;98534.22;;;5.14;70.76
5755;BME280;2902;42.130;24.732;2023-03-15T03:43:14;98527.03;;;5.22;70.56
5755;BME280;2902;42.130;24.732;2023-03-15T03:45:41;98507.97;;;5.20;70.70
5755;BME280;2902;42.130;24.732;2023-03-15T03:48:07;98518.69;;;5.33;70.65
5755;BME280;2902;42.130;24.732;2023-03-15T03:50:34;98513.41;;;5.33;71.03
5755;BME280;2902;42.130;24.732;2023-03-15T03:53:01;98509.78;;;5.34;70.67
5755;BME280;2902;42.130;24.732;2023-03-15T03:55:29;98521.91;;;5.35;71.10
5755;BME280;2902;42.130;24.732;2023-03-15T03:57:58;98541.06;;;5.44;71.41
5755;BME280;2902;42.130;24.732;2023-03-15T04:00:25;98535.72;;;5.37;70.58
5755;BME280;2902;42.130;24.732;2023-03-15T04:02:52;98535.84;;;5.29;70.98
5755;BME280;2902;42.130;24.732;2023-03-15T04:05:19;98535.56;;;5.24;70.38
5755;BME280;2902;42.130;24.732;2023-03-15T04:07:46;98538.94;;;5.18;71.27
5755;BME280;2902;42.130;24.732;2023-03-15T04:10:13;98530.63;;;5.15;70.54
5755;BME280;2902;42.130;24.732;2023-03-15T04:12:42;98526.91;;;5.09;71.02
5755;BME280;2902;42.130;24.732;2023-03-15T04:15:09;98520.38;;;5.05;71.01
5755;BME280;2902;42.130;24.732;2023-03-15T04:17:36;98529.28;;;5.04;71.09
5755;BME280;2902;42.130;24.732;2023-03-15T04:20:04;98529.56;;;4.95;70.76
5755;BME280;2902;42.130;24.732;2023-03-15T04:22:33;98508.44;;;4.88;71.22
5755;BME280;2902;42.130;24.732;2023-03-15T04:25:00;98504.44;;;4.92;71.19
5755;BME280;2902;42.130;24.732;2023-03-15T04:27:27;98499.53;;;4.89;71.40
5755;BME280;2902;42.130;24.732;2023-03-15T04:29:55;98500.72;;;4.87;71.16
5755;BME280;2902;42.130;24.732;2023-03-15T04:32:22;98499.91;;;4.86;71.25
5755;BME280;2902;42.130;24.732;2023-03-15T04:34:49;98505.91;;;4.80;71.45
5755;BME280;2902;42.130;24.732;2023-03-15T04:37:16;98507.19;;;4.84;72.09
5755;BME280;2902;42.130;24.732;2023-03-15T04:39:43;98510.13;;;4.96;71.74
5755;BME280;2902;42.130;24.732;2023-03-15T04:42:10;98507.47;;;5.10;71.55
5755;BME280;2902;42.130;24.732;2023-03-15T04:44:37;98512.19;;;5.15;70.46
5755;BME280;2902;42.130;24.732;2023-03-15T04:47:05;98523.78;;;5.20;73.30
5755;BME280;2902;42.130;24.732;2023-03-15T04:49:32;98520.13;;;5.36;73.31
5755;BME280;2902;42.130;24.732;2023-03-15T04:52:00;98519.16;;;5.43;72.30
5755;BME280;2902;42.130;24.732;2023-03-15T04:54:27;98518.88;;;5.53;73.42
5755;BME280;2902;42.130;24.732;2023-03-15T04:56:54;98516.53;;;5.64;74.49
5755;BME280;2902;42.130;24.732;2023-03-15T04:59:21;98516.78;;;5.69;74.84
5755;BME280;2902;42.130;24.732;2023-03-15T05:01:47;98535.41;;;5.83;75.21
5755;BME280;2902;42.130;24.732;2023-03-15T05:04:16;98525.34;;;5.93;75.58
5755;BME280;2902;42.130;24.732;2023-03-15T05:06:42;98516.03;;;5.97;75.09
5755;BME280;2902;42.130;24.732;2023-03-15T05:09:09;98521.22;;;6.11;75.40
5755;BME280;2902;42.130;24.732;2023-03-15T05:11:43;98525.53;;;6.19;75.06
5755;BME280;2902;42.130;24.732;2023-03-15T05:14:10;98523.97;;;6.24;74.68
5755;BME280;2902;42.130;24.732;2023-03-15T05:16:36;98538.44;;;6.35;74.53
5755;BME280;2902;42.130;24.732;2023-03-15T05:19:03;98524.69;;;6.39;74.62
5755;BME280;2902;42.130;24.732;2023-03-15T05:21:31;98543.03;;;6.54;74.25
5755;BME280;2902;42.130;24.732;2023-03-15T05:23:58;98534.13;;;6.61;73.95
5755;BME280;2902;42.130;24.732;2023-03-15T05:26:25;98531.47;;;6.55;73.28
5755;BME280;2902;42.130;24.732;2023-03-15T05:28:52;98537.97;;;6.59;74.37
5755;BME280;2902;42.130;24.732;2023-03-15T05:31:18;98544.91;;;6.66;73.90
5755;BME280;2902;42.130;24.732;2023-03-15T05:33:45;98533.97;;;6.69;72.85
5755;BME280;2902;42.130;24.732;2023-03-15T05:36:12;98525.50;;;6.74;73.14
5755;BME280;2902;42.130;24.732;2023-03-15T05:38:43;98528.75;;;6.76;72.04
5755;BME280;2902;42.130;24.732;2023-03-15T05:41:09;98527.25;;;6.60;70.04
5755;BME280;2902;42.130;24.732;2023-03-15T05:43:36;98528.56;;;6.43;68.25
5755;BME280;2902;42.130;24.732;2023-03-15T05:46:03;98529.81;;;6.20;69.07
5755;BME280;2902;42.130;24.732;2023-03-15T05:48:30;98519.78;;;6.09;68.18
5755;BME280;2902;42.130;24.732;2023-03-15T05:50:57;98525.34;;;5.93;69.47
5755;BME280;2902;42.130;24.732;2023-03-15T05:53:23;98522.69;;;5.93;69.67
5755;BME280;2902;42.130;24.732;2023-03-15T05:55:51;98524.31;;;5.94;68.93
5755;BME280;2902;42.130;24.732;2023-03-15T05:58:18;98515.66;;;6.00;69.05
5755;BME280;2902;42.130;24.732;2023-03-15T06:00:45;98519.94;;;6.01;69.82
5755;BME280;2902;42.130;24.732;2023-03-15T06:03:13;98521.78;;;6.07;68.92
5755;BME280;2902;42.130;24.732;2023-03-15T06:05:40;98511.84;;;6.02;70.32
5755;BME280;2902;42.130;24.732;2023-03-15T06:08:06;98510.13;;;6.16;68.93
5755;BME280;2902;42.130;24.732;2023-03-15T06:10:33;98532.56;;;6.67;67.25
5755;BME280;2902;42.130;24.732;2023-03-15T06:13:01;98535.44;;;7.19;66.05
5755;BME280;2902;42.130;24.732;2023-03-15T06:15:28;98531.50;;;7.75;63.46
5755;BME280;2902;42.130;24.732;2023-03-15T06:17:55;98522.00;;;8.26;63.32
5755;BME280;2902;42.130;24.732;2023-03-15T06:20:22;98533.28;;;8.85;61.34
5755;BME280;2902;42.130;24.732;2023-03-15T06:22:48;98531.31;;;9.18;60.74
5755;BME280;2902;42.130;24.732;2023-03-15T06:25:15;98525.41;;;9.60;60.34
5755;BME280;2902;42.130;24.732;2023-03-15T06:27:42;98534.75;;;9.93;61.22
5755;BME280;2902;42.130;24.732;2023-03-15T06:30:11;98519.25;;;10.21;59.22
5755;BME280;2902;42.130;24.732;2023-03-15T06:32:37;98526.34;;;10.52;59.81
5755;BME280;2902;42.130;24.732;2023-03-15T06:35:05;98524.38;;;10.41;59.64
5755;BME280;2902;42.130;24.732;2023-03-15T06:37:31;98525.28;;;10.35;59.01
5755;BME280;2902;42.130;24.732;2023-03-15T06:40:00;98527.38;;;10.69;61.44
5755;BME280;2902;42.130;24.732;2023-03-15T06:42:28;98528.22;;;11.06;57.84
5755;BME280;2902;42.130;24.732;2023-03-15T06:44:55;98529.41;;;11.57;57.37
5755;BME280;2902;42.130;24.732;2023-03-15T06:47:24;98530.44;;;11.86;55.47
5755;BME280;2902;42.130;24.732;2023-03-15T06:49:51;98529.38;;;11.87;53.36
5755;BME280;2902;42.130;24.732;2023-03-15T06:52:18;98538.59;;;12.02;53.03
5755;BME280;2902;42.130;24.732;2023-03-15T06:54:44;98539.78;;;12.29;50.97
5755;BME280;2902;42.130;24.732;2023-03-15T06:57:11;98545.47;;;12.44;49.95
5755;BME280;2902;42.130;24.732;2023-03-15T06:59:38;98540.97;;;12.79;49.15
5755;BME280;2902;42.130;24.732;2023-03-15T07:02:05;98539.16;;;13.31;48.67
5755;BME280;2902;42.130;24.732;2023-03-15T07:04:33;98533.09;;;13.91;46.31
5755;BME280;2902;42.130;24.732;2023-03-15T07:07:00;98531.81;;;14.10;44.53
5755;BME280;2902;42.130;24.732;2023-03-15T07:09:27;98515.16;;;14.03;43.96
5755;BME280;2902;42.130;24.732;2023-03-15T07:11:53;98527.28;;;13.94;44.10
5755;BME280;2902;42.130;24.732;2023-03-15T07:14:20;98516.72;;;13.71;44.54
5755;BME280;2902;42.130;24.732;2023-03-15T07:16:47;98521.38;;;13.64;44.85
5755;BME280;2902;42.130;24.732;2023-03-15T07:19:14;98524.28;;;13.63;45.07
5755;BME280;2902;42.130;24.732;2023-03-15T07:21:42;98521.97;;;13.83;45.76
5755;BME280;2902;42.130;24.732;2023-03-15T07:24:09;98522.47;;;14.24;45.37
5755;BME280;2902;42.130;24.732;2023-03-15T07:26:35;98523.19;;;14.36;43.61
5755;BME280;2902;42.130;24.732;2023-03-15T07:29:02;98525.81;;;14.20;45.04
5755;BME280;2902;42.130;24.732;2023-03-15T07:31:29;98516.28;;;14.07;44.03
5755;BME280;2902;42.130;24.732;2023-03-15T07:33:56;98512.78;;;13.90;45.74
5755;BME280;2902;42.130;24.732;2023-03-15T07:36:22;98505.69;;;14.12;44.58
5755;BME280;2902;42.130;24.732;2023-03-15T07:38:51;98506.94;;;14.38;44.58
5755;BME280;2902;42.130;24.732;2023-03-15T07:41:17;98501.72;;;14.15;44.49
5755;BME280;2902;42.130;24.732;2023-03-15T07:43:44;98494.41;;;14.10;45.22
5755;BME280;2902;42.130;24.732;2023-03-15T07:46:11;98503.28;;;14.27;43.68
5755;BME280;2902;42.130;24.732;2023-03-15T07:48:37;98512.53;;;13.92;45.18
5755;BME280;2902;42.130;24.732;2023-03-15T07:51:04;98512.53;;;13.92;44.25
5755;BME280;2902;42.130;24.732;2023-03-15T07:53:31;98508.31;;;13.79;45.42
5755;BME280;2902;42.130;24.732;2023-03-15T07:55:59;98503.97;;;13.90;45.01
5755;BME280;2902;42.130;24.732;2023-03-15T07:58:26;98506.22;;;13.81;45.49
5755;BME280;2902;42.130;24.732;2023-03-15T08:00:54;98490.56;;;13.57;45.25
5755;BME280;2902;42.130;24.732;2023-03-15T08:03:21;98504.50;;;13.75;45.31
5755;BME280;2902;42.130;24.732;2023-03-15T08:05:48;98497.00;;;13.89;46.39
5755;BME280;2902;42.130;24.732;2023-03-15T08:08:15;98495.97;;;14.06;44.50
5755;BME280;2902;42.130;24.732;2023-03-15T08:10:43;98488.81;;;13.79;44.84
5755;BME280;2902;42.130;24.732;2023-03-15T08:13:11;98475.56;;;13.39;46.31
5755;BME280;2902;42.130;24.732;2023-03-15T08:15:38;98459.16;;;13.19;46.84
5755;BME280;2902;42.130;24.732;2023-03-15T08:18:05;98455.69;;;13.47;46.76
5755;BME280;2902;42.130;24.732;2023-03-15T08:20:32;98451.16;;;13.47;46.60
5755;BME280;2902;42.130;24.732;2023-03-15T08:22:59;98453.13;;;13.52;46.15
5755;BME280;2902;42.130;24.732;2023-03-15T08:25:26;98452.50;;;13.61;45.38
5755;BME280;2902;42.130;24.732;2023-03-15T08:27:52;98451.44;;;13.62;46.68
5755;BME280;2902;42.130;24.732;2023-03-15T08:30:21;98446.84;;;13.91;45.07
5755;BME280;2902;42.130;24.732;2023-03-15T08:32:48;98425.97;;;14.37;44.34
5755;BME280;2902;42.130;24.732;2023-03-15T08:35:18;98437.41;;;14.54;42.90
5755;BME280;2902;42.130;24.732;2023-03-15T08:37:46;98437.28;;;14.44;41.98
5755;BME280;2902;42.130;24.732;2023-03-15T08:40:14;98412.75;;;15.12;63.78
5755;BME280;2902;42.130;24.732;2023-03-15T08:42:43;98431.94;;;15.83;43.35
5755;BME280;2902;42.130;24.732;2023-03-15T08:45:10;98401.06;;;16.08;40.47
5755;BME280;2902;42.130;24.732;2023-03-15T08:47:38;98426.75;;;16.04;39.28
5755;BME280;2902;42.130;24.732;2023-03-15T08:50:06;98425.25;;;15.54;40.83
5755;BME280;2902;42.130;24.732;2023-03-15T08:52:34;98434.94;;;15.12;41.64
5755;BME280;2902;42.130;24.732;2023-03-15T08:55:00;98435.06;;;14.79;42.75
5755;BME280;2902;42.130;24.732;2023-03-15T08:57:28;98428.72;;;14.64;42.70
5755;BME280;2902;42.130;24.732;2023-03-15T08:59:57;98437.28;;;14.44;43.82
5755;BME280;2902;42.130;24.732;2023-03-15T09:02:24;98429.69;;;14.36;42.96
5755;BME280;2902;42.130;24.732;2023-03-15T09:04:52;98421.59;;;14.15;43.98
5755;BME280;2902;42.130;24.732;2023-03-15T09:07:19;98421.63;;;14.31;43.61
5755;BME280;2902;42.130;24.732;2023-03-15T09:09:46;98413.59;;;14.53;45.06
5755;BME280;2902;42.130;24.732;2023-03-15T09:12:13;98411.88;;;15.06;42.88
5755;BME280;2902;42.130;24.732;2023-03-15T09:14:41;98403.25;;;15.26;41.96
5755;BME280;2902;42.130;24.732;2023-03-15T09:17:07;98399.00;;;15.03;42.08
5755;BME280;2902;42.130;24.732;2023-03-15T09:19:34;98399.25;;;15.28;40.72
5755;BME280;2902;42.130;24.732;2023-03-15T09:22:02;98401.88;;;15.23;41.34
5755;BME280;2902;42.130;24.732;2023-03-15T09:24:29;98392.34;;;15.06;40.18
5755;BME280;2902;42.130;24.732;2023-03-15T09:26:56;98388.69;;;14.90;40.29
5755;BME280;2902;42.130;24.732;2023-03-15T09:29:23;98397.16;;;14.82;40.64
5755;BME280;2902;42.130;24.732;2023-03-15T09:31:50;98390.81;;;14.88;40.79
5755;BME280;2902;42.130;24.732;2023-03-15T09:34:16;98387.91;;;15.16;39.83
5755;BME280;2902;42.130;24.732;2023-03-15T09:36:43;98391.97;;;15.45;40.08
5755;BME280;2902;42.130;24.732;2023-03-15T09:39:11;98403.44;;;15.19;39.22
5755;BME280;2902;42.130;24.732;2023-03-15T09:41:43;98402.44;;;14.99;40.11
5755;BME280;2902;42.130;24.732;2023-03-15T09:44:31;98384.97;;;14.91;41.09
5755;BME280;2902;42.130;24.732;2023-03-15T09:47:14;98343.19;;;14.85;39.98
5755;BME280;2902;42.130;24.732;2023-03-15T09:49:48;98377.19;;;15.38;39.58
5755;BME280;2902;42.130;24.732;2023-03-15T09:52:36;98377.13;;;15.59;39.44
5755;BME280;2902;42.130;24.732;2023-03-15T09:55:11;98330.28;;;15.62;37.58
5755;BME280;2902;42.130;24.732;2023-03-15T09:57:43;98373.25;;;16.19;37.16
5755;BME280;2902;42.130;24.732;2023-03-15T10:00:18;98364.69;;;16.17;37.15
5755;BME280;2902;42.130;24.732;2023-03-15T10:02:51;98370.25;;;16.52;36.95
5755;BME280;2902;42.130;24.732;2023-03-15T10:05:25;98366.56;;;16.63;36.50
5755;BME280;2902;42.130;24.732;2023-03-15T10:07:53;98358.56;;;16.78;35.34
5755;BME280;2902;42.130;24.732;2023-03-15T10:10:25;98347.88;;;16.88;35.26
5755;BME280;2902;42.130;24.732;2023-03-15T10:12:59;98348.25;;;16.45;36.89
5755;BME280;2902;42.130;24.732;2023-03-15T10:15:35;98343.34;;;16.37;36.46
5755;BME280;2902;42.130;24.732;2023-03-15T10:18:22;98346.31;;;15.93;37.71
5755;BME280;2902;42.130;24.732;2023-03-15T10:20:59;98347.19;;;15.67;38.12
5755;BME280;2902;42.130;24.732;2023-03-15T10:23:36;98353.63;;;15.66;37.97
5755;BME280;2902;42.130;24.732;2023-03-15T10:26:10;98352.81;;;15.66;37.27
5755;BME280;2902;42.130;24.732;2023-03-15T10:28:39;98348.22;;;15.61;38.20
5755;BME280;2902;42.130;24.732;2023-03-15T10:31:12;98353.13;;;15.43;38.32
5755;BME280;2902;42.130;24.732;2023-03-15T10:33:40;98351.00;;;15.40;37.95
5755;BME280;2902;42.130;24.732;2023-03-15T10:36:14;98336.78;;;15.39;38.50
5755;BME280;2902;42.130;24.732;2023-03-15T10:38:42;98336.81;;;14.91;39.87
5755;BME280;2902;42.130;24.732;2023-03-15T10:41:12;98336.59;;;14.71;40.21
5755;BME280;2902;42.130;24.732;2023-03-15T10:43:40;98336.13;;;14.74;40.62
5755;BME280;2902;42.130;24.732;2023-03-15T10:46:08;98318.34;;;14.90;40.25
5755;BME280;2902;42.130;24.732;2023-03-15T10:48:36;98318.16;;;14.96;39.61
5755;BME280;2902;42.130;24.732;2023-03-15T10:51:05;98313.22;;;14.83;40.30
5755;BME280;2902;42.130;24.732;2023-03-15T10:53:32;98311.91;;;14.38;41.04
5755;BME280;2902;42.130;24.732;2023-03-15T10:56:00;98324.13;;;14.55;41.09
5755;BME280;2902;42.130;24.732;2023-03-15T10:58:38;98315.94;;;14.40;41.67
5755;BME280;2902;42.130;24.732;2023-03-15T11:01:07;98305.06;;;14.25;42.47
5755;BME280;2902;42.130;24.732;2023-03-15T11:03:34;98298.91;;;14.46;41.80
5755;BME280;2902;42.130;24.732;2023-03-15T11:06:02;98303.72;;;14.44;42.23
5755;BME280;2902;42.130;24.732;2023-03-15T11:08:37;98303.72;;;14.44;42.23
5755;BME280;2902;42.130;24.732;2023-03-15T11:11:04;98305.75;;;14.59;41.54
5755;BME280;2902;42.130;24.732;2023-03-15T11:13:34;98316.00;;;14.45;41.48
5755;BME280;2902;42.130;24.732;2023-03-15T11:16:03;98307.19;;;14.23;41.80
5755;BME280;2902;42.130;24.732;2023-03-15T11:18:34;98304.00;;;14.26;42.29
5755;BME280;2902;42.130;24.732;2023-03-15T11:21:05;98305.13;;;14.52;41.14
5755;BME280;2902;42.130;24.732;2023-03-15T11:23:36;98301.38;;;14.74;40.82
5755;BME280;2902;42.130;24.732;2023-03-15T11:26:03;98307.16;;;14.93;40.71
5755;BME280;2902;42.130;24.732;2023-03-15T11:28:34;98296.91;;;15.11;40.69
5755;BME280;2902;42.130;24.732;2023-03-15T11:31:03;98293.31;;;15.27;39.64
5755;BME280;2902;42.130;24.732;2023-03-15T11:33:42;98287.06;;;15.43;39.94
5755;BME280;2902;42.130;24.732;2023-03-15T11:36:15;98292.53;;;15.58;40.47
5755;BME280;2902;42.130;24.732;2023-03-15T11:38:43;98292.91;;;15.40;40.38
5755;BME280;2902;42.130;24.732;2023-03-15T11:41:27;98290.69;;;15.32;41.07
5755;BME280;2902;42.130;24.732;2023-03-15T11:44:04;98283.69;;;15.26;41.12
5755;BME280;2902;42.130;24.732;2023-03-15T11:46:38;98285.97;;;15.39;41.16
5755;BME280;2902;42.130;24.732;2023-03-15T11:49:12;98277.47;;;15.47;40.55
5755;BME280;2902;42.130;24.732;2023-03-15T11:51:41;98274.31;;;15.55;40.80
5755;BME280;2902;42.130;24.732;2023-03-15T11:54:12;98264.69;;;15.59;40.44
5755;BME280;2902;42.130;24.732;2023-03-15T11:57:00;98260.91;;;15.55;40.68
5755;BME280;2902;42.130;24.732;2023-03-15T11:59:31;98266.25;;;15.50;40.40
5755;BME280;2902;42.130;24.732;2023-03-15T12:01:59;98265.06;;;15.36;40.60
5755;BME280;2902;42.130;24.732;2023-03-15T12:04:49;98261.47;;;14.94;40.83
5755;BME280;2902;42.130;24.732;2023-03-15T12:07:36;98258.53;;;14.96;41.40
5755;BME280;2902;42.130;24.732;2023-03-15T12:10:30;98257.72;;;14.95;41.81
5755;BME280;2902;42.130;24.732;2023-03-15T12:12:58;98240.03;;;14.89;41.63
5755;BME280;2902;42.130;24.732;2023-03-15T12:15:44;98241.84;;;14.84;41.94
5755;BME280;2902;42.130;24.732;2023-03-15T12:18:14;98238.94;;;14.85;42.28
5755;BME280;2902;42.130;24.732;2023-03-15T12:20:51;98229.81;;;14.81;42.69
5755;BME280;2902;42.130;24.732;2023-03-15T12:23:36;98230.06;;;14.80;43.26
5755;BME280;2902;42.130;24.732;2023-03-15T12:26:09;98236.47;;;14.79;42.72
5755;BME280;2902;42.130;24.732;2023-03-15T12:28:49;98233.13;;;14.67;43.10
5755;BME280;2902;42.130;24.732;2023-03-15T12:31:18;98231.31;;;14.72;42.75
5755;BME280;2902;42.130;24.732;2023-03-15T12:33:47;98235.03;;;14.45;42.96
5755;BME280;2902;42.130;24.732;2023-03-15T12:36:28;98233.28;;;14.29;42.67
5755;BME280;2902;42.130;24.732;2023-03-15T12:39:00;98222.25;;;14.25;42.51
5755;BME280;2902;42.130;24.732;2023-03-15T12:41:37;98222.31;;;14.30;42.37
5755;BME280;2902;42.130;24.732;2023-03-15T12:47:01;98211.50;;;14.20;42.49
5755;BME280;2902;42.130;24.732;2023-03-15T12:49:34;98213.06;;;14.38;41.94
5755;BME280;2902;42.130;24.732;2023-03-15T12:52:03;98209.94;;;14.46;41.44
5755;BME280;2902;42.130;24.732;2023-03-15T12:54:36;98216.50;;;14.60;41.12
5755;BME280;2902;42.130;24.732;2023-03-15T12:57:11;98216.19;;;14.56;40.59
5755;BME280;2902;42.130;24.732;2023-03-15T12:59:49;98222.50;;;14.45;40.77
5755;BME280;2902;42.130;24.732;2023-03-15T13:02:34;98219.41;;;14.58;40.82
5755;BME280;2902;42.130;24.732;2023-03-15T13:05:12;98215.81;;;14.74;40.18
5755;BME280;2902;42.130;24.732;2023-03-15T13:07:56;98217.72;;;14.47;40.92
5755;BME280;2902;42.130;24.732;2023-03-15T13:13:30;98218.72;;;14.68;40.89
5755;BME280;2902;42.130;24.732;2023-03-15T13:16:14;98204.31;;;14.74;41.01
5755;BME280;2902;42.130;24.732;2023-03-15T13:18:52;98197.13;;;14.74;41.47
5755;BME280;2902;42.130;24.732;2023-03-15T13:21:25;98197.72;;;14.81;41.24
5755;BME280;2902;42.130;24.732;2023-03-15T13:23:56;98195.81;;;14.77;41.33
5755;BME280;2902;42.130;24.732;2023-03-15T13:26:40;98200.94;;;14.83;41.36
5755;BME280;2902;42.130;24.732;2023-03-15T13:29:12;98199.34;;;14.82;41.30
5755;BME280;2902;42.130;24.732;2023-03-15T13:31:42;98196.16;;;14.85;41.34
5755;BME280;2902;42.130;24.732;2023-03-15T13:34:13;98192.22;;;14.66;41.71